createdAt,value
2019-04-11T00:00:03.434Z,98632.34
2019-04-11T00:00:35.364Z,98633.78
2019-04-11T00:01:10.104Z,98634.88
2019-04-11T00:01:46.869Z,98636.32
2019-04-11T00:02:14.447Z,98629.65
2019-04-11T00:02:45.651Z,98632.97
2019-04-11T00:03:17.437Z,98631.48
2019-04-11T00:03:49.382Z,98636.58
2019-04-11T00:04:20.667Z,98631.18
2019-04-11T00:04:52.538Z,98637.50
2019-04-11T00:05:23.857Z,98635.57
2019-04-11T00:05:55.083Z,98635.31
2019-04-11T00:06:26.265Z,98637.40
2019-04-11T00:06:58.123Z,98634.61
2019-04-11T00:07:30.131Z,98634.47
2019-04-11T00:08:01.809Z,98639.46
2019-04-11T00:08:34.164Z,98638.81
2019-04-11T00:09:06.140Z,98634.74
2019-04-11T00:09:37.308Z,98641.41
2019-04-11T00:10:08.508Z,98635.16
2019-04-11T00:10:39.749Z,98632.88
2019-04-11T00:11:13.486Z,98634.31
2019-04-11T00:11:44.756Z,98637.44
2019-04-11T00:12:16.614Z,98635.38
2019-04-11T00:12:48.504Z,98631.98
2019-04-11T00:13:24.377Z,98634.20
2019-04-11T00:13:53.629Z,98627.75
2019-04-11T00:14:24.967Z,98631.98
2019-04-11T00:14:56.168Z,98629.37
2019-04-11T00:15:27.372Z,98633.61
2019-04-11T00:15:59.179Z,98627.94
2019-04-11T00:16:31.006Z,98632.17
2019-04-11T00:17:02.403Z,98630.39
2019-04-11T00:17:34.202Z,98535.58
2019-04-11T00:18:06.152Z,98626.69
2019-04-11T00:18:37.493Z,98626.84
2019-04-11T00:19:09.794Z,98629.14
2019-04-11T00:19:40.997Z,98627.05
2019-04-11T00:20:12.210Z,98624.44
2019-04-11T00:20:44.393Z,98622.73
2019-04-11T00:21:16.743Z,98620.91
2019-04-11T00:21:48.902Z,98625.61
2019-04-11T00:22:20.203Z,98628.06
2019-04-11T00:22:52.581Z,98622.16
2019-04-11T00:23:24.003Z,98624.65
2019-04-11T00:23:55.178Z,98624.65
2019-04-11T00:24:27.121Z,98625.88
2019-04-11T00:24:58.932Z,98628.01
2019-04-11T00:25:30.290Z,98628.95
2019-04-11T00:26:02.138Z,98627.18
2019-04-11T00:26:33.453Z,98623.66
2019-04-11T00:27:04.706Z,98619.73
2019-04-11T00:27:37.184Z,98624.48
2019-04-11T00:28:09.911Z,98620.95
2019-04-11T00:28:41.686Z,98620.25
2019-04-11T00:29:14.266Z,98619.81
2019-04-11T00:29:46.882Z,98616.33
2019-04-11T00:30:18.253Z,98622.08
2019-04-11T00:30:50.440Z,98617.02
2019-04-11T00:31:21.675Z,98618.02
2019-04-11T00:31:52.901Z,98608.38
2019-04-11T00:32:24.142Z,98620.00
2019-04-11T00:32:56.055Z,98619.61
2019-04-11T00:33:27.324Z,98621.52
2019-04-11T00:33:58.526Z,98621.72
2019-04-11T00:34:30.957Z,98623.42
2019-04-11T00:35:03.586Z,98619.11
2019-04-11T00:35:35.570Z,98630.42
2019-04-11T00:36:06.809Z,98628.64
2019-04-11T00:36:38.775Z,98632.55
2019-04-11T00:37:10.729Z,98630.50
2019-04-11T00:37:42.012Z,98628.02
2019-04-11T00:38:13.871Z,98630.63
2019-04-11T00:38:45.734Z,98629.84
2019-04-11T00:39:17.337Z,98624.61
2019-04-11T00:39:48.512Z,98631.53
2019-04-11T00:40:19.966Z,98630.63
2019-04-11T00:40:51.291Z,98628.53
2019-04-11T00:41:22.492Z,98633.75
2019-04-11T00:41:54.372Z,98639.53
2019-04-11T00:42:26.206Z,98635.14
2019-04-11T00:42:57.519Z,98631.53
2019-04-11T00:43:35.821Z,98634.02
2019-04-11T00:44:02.821Z,98631.33
2019-04-11T00:44:34.759Z,98631.33
2019-04-11T00:45:06.070Z,98628.20
2019-04-11T00:45:38.047Z,98628.87
2019-04-11T00:46:09.932Z,98626.27
2019-04-11T00:46:41.147Z,98629.14
2019-04-11T00:47:13.085Z,98626.92
2019-04-11T00:47:45.002Z,98630.28
2019-04-11T00:48:17.492Z,98630.89
2019-04-11T00:48:48.802Z,98627.75
2019-04-11T00:49:20.053Z,98630.37
2019-04-11T00:49:51.263Z,98629.14
2019-04-11T00:50:23.244Z,98629.53
2019-04-11T00:50:54.543Z,98623.36
2019-04-11T00:51:25.779Z,98625.93
2019-04-11T00:51:56.975Z,98624.62
2019-04-11T00:52:28.187Z,98461.75
2019-04-11T00:52:59.408Z,98624.16
2019-04-11T00:53:30.962Z,98624.23
2019-04-11T00:54:06.621Z,98625.34
2019-04-11T00:54:38.591Z,98619.81
2019-04-11T00:55:09.932Z,98626.94
2019-04-11T00:55:41.870Z,98629.23
2019-04-11T00:56:13.228Z,98625.61
2019-04-11T00:56:44.429Z,98628.94
2019-04-11T00:57:16.811Z,98629.61
2019-04-11T00:57:49.489Z,98625.19
2019-04-11T00:58:21.363Z,98631.39
2019-04-11T00:58:52.587Z,98634.48
2019-04-11T00:59:24.602Z,98632.30
2019-04-11T00:59:56.503Z,98628.86
2019-04-11T01:00:27.759Z,98628.70
2019-04-11T01:00:59.670Z,98627.91
2019-04-11T01:01:31.596Z,98627.59
2019-04-11T01:02:03.036Z,98625.06
2019-04-11T01:02:34.317Z,98624.16
2019-04-11T01:03:06.487Z,98630.00
2019-04-11T01:03:38.105Z,98628.94
2019-04-11T01:04:09.689Z,98629.20
2019-04-11T01:04:41.285Z,98629.48
2019-04-11T01:05:13.055Z,98632.52
2019-04-11T01:05:45.620Z,98626.00
2019-04-11T01:06:18.219Z,98626.39
2019-04-11T01:06:50.167Z,98629.84
2019-04-11T01:07:21.400Z,98628.53
2019-04-11T01:07:53.375Z,98625.56
2019-04-11T01:08:24.671Z,98625.69
2019-04-11T01:08:55.883Z,98626.01
2019-04-11T01:09:27.076Z,98626.61
2019-04-11T01:09:58.936Z,98632.89
2019-04-11T01:10:30.123Z,98627.80
2019-04-11T01:11:01.475Z,98629.77
2019-04-11T01:11:32.635Z,98630.28
2019-04-11T01:12:04.638Z,98627.91
2019-04-11T01:12:36.545Z,98634.95
2019-04-11T01:13:08.999Z,98624.34
2019-04-11T01:13:47.760Z,98632.17
2019-04-11T01:14:13.371Z,98630.48
2019-04-11T01:14:44.771Z,98632.49
2019-04-11T01:15:15.999Z,98631.31
2019-04-11T01:15:47.213Z,98627.47
2019-04-11T01:16:18.424Z,98630.33
2019-04-11T01:16:50.690Z,98631.23
2019-04-11T01:17:23.252Z,98630.08
2019-04-11T01:17:54.604Z,98632.17
2019-04-11T01:18:26.220Z,98631.38
2019-04-11T01:18:58.304Z,98628.89
2019-04-11T01:19:29.539Z,98624.98
2019-04-11T01:20:00.767Z,98632.77
2019-04-11T01:20:31.976Z,98630.98
2019-04-11T01:21:04.047Z,98625.38
2019-04-11T01:21:35.296Z,98629.29
2019-04-11T01:22:07.653Z,98632.45
2019-04-11T01:22:39.084Z,98629.45
2019-04-11T01:23:11.047Z,98631.27
2019-04-11T01:23:42.927Z,98631.27
2019-04-11T01:24:14.265Z,98635.17
2019-04-11T01:24:46.064Z,98636.87
2019-04-11T01:25:17.314Z,98632.05
2019-04-11T01:25:48.593Z,98637.27
2019-04-11T01:26:19.810Z,98634.73
2019-04-11T01:26:51.783Z,98634.59
2019-04-11T01:27:23.723Z,98634.98
2019-04-11T01:27:54.928Z,98636.20
2019-04-11T01:28:26.823Z,98636.61
2019-04-11T01:28:58.795Z,98637.44
2019-04-11T01:29:30.102Z,98632.22
2019-04-11T01:30:02.145Z,98635.30
2019-04-11T01:30:33.506Z,98636.09
2019-04-11T01:31:05.236Z,98636.84
2019-04-11T01:31:37.777Z,98632.93
2019-04-11T01:32:09.031Z,98633.33
2019-04-11T01:32:40.349Z,98636.41
2019-04-11T01:33:11.551Z,98633.41
2019-04-11T01:33:42.760Z,98635.14
2019-04-11T01:34:13.973Z,98630.40
2019-04-11T01:34:45.175Z,98628.06
2019-04-11T01:35:17.271Z,98630.87
2019-04-11T01:35:49.824Z,98628.92
2019-04-11T01:36:21.094Z,98629.59
2019-04-11T01:36:53.344Z,98631.48
2019-04-11T01:37:25.928Z,98632.47
2019-04-11T01:37:57.807Z,98630.98
2019-04-11T01:38:29.012Z,98632.09
2019-04-11T01:39:00.998Z,98629.48
2019-04-11T01:39:32.764Z,98629.01
2019-04-11T01:40:04.064Z,98629.87
2019-04-11T01:40:35.999Z,98633.86
2019-04-11T01:41:07.378Z,98631.30
2019-04-11T01:41:38.586Z,98636.47
2019-04-11T01:42:10.905Z,98628.97
2019-04-11T01:42:43.661Z,98637.03
2019-04-11T01:43:15.667Z,98638.73
2019-04-11T01:43:55.299Z,98634.94
2019-04-11T01:44:20.725Z,98633.24
2019-04-11T01:44:52.703Z,98632.02
2019-04-11T01:45:24.035Z,98632.73
2019-04-11T01:45:55.972Z,98632.22
2019-04-11T01:46:27.759Z,98636.13
2019-04-11T01:46:58.960Z,98631.83
2019-04-11T01:47:30.918Z,98635.66
2019-04-11T01:48:02.131Z,98631.31
2019-04-11T01:48:33.391Z,98630.37
2019-04-11T01:49:04.633Z,98630.77
2019-04-11T01:49:36.529Z,98631.16
2019-04-11T01:50:08.457Z,98634.23
2019-04-11T01:50:40.941Z,98632.61
2019-04-11T01:51:13.714Z,98636.05
2019-04-11T01:51:45.552Z,98627.84
2019-04-11T01:52:16.839Z,98629.86
2019-04-11T01:52:48.759Z,98629.93
2019-04-11T01:53:20.238Z,98631.31
2019-04-11T01:53:51.467Z,98627.52
2019-04-11T01:54:23.717Z,98631.83
2019-04-11T01:54:56.313Z,98626.61
2019-04-11T01:55:28.260Z,98628.81
2019-04-11T01:55:59.498Z,98630.91
2019-04-11T01:56:31.460Z,98633.71
2019-04-11T01:57:03.490Z,98629.87
2019-04-11T01:57:35.864Z,98628.97
2019-04-11T01:58:07.355Z,98627.59
2019-04-11T01:58:38.588Z,98629.33
2019-04-11T01:59:09.807Z,98631.94
2019-04-11T01:59:41.772Z,98629.41
2019-04-11T02:00:13.144Z,98625.89
2019-04-11T02:00:44.355Z,98623.36
2019-04-11T02:01:16.748Z,98621.58
2019-04-11T02:01:48.063Z,98622.45
2019-04-11T02:02:19.322Z,98622.88
2019-04-11T02:02:50.791Z,98619.44
2019-04-11T02:03:23.143Z,98619.84
2019-04-11T02:03:55.262Z,98623.28
2019-04-11T02:04:27.851Z,98624.98
2019-04-11T02:04:59.285Z,98624.91
2019-04-11T02:05:30.495Z,98622.18
2019-04-11T02:06:01.694Z,98620.87
2019-04-11T02:06:34.019Z,98625.62
2019-04-11T02:07:06.589Z,98620.80
2019-04-11T02:07:38.577Z,98621.13
2019-04-11T02:08:11.197Z,98619.74
2019-04-11T02:08:43.771Z,98616.70
2019-04-11T02:09:16.216Z,98620.97
2019-04-11T02:09:48.377Z,98623.46
2019-04-11T02:10:20.954Z,98617.34
2019-04-11T02:10:52.917Z,98622.55
2019-04-11T02:11:24.220Z,98620.70
2019-04-11T02:11:56.149Z,98619.40
2019-04-11T02:12:27.462Z,98623.86
2019-04-11T02:12:59.601Z,98615.95
2019-04-11T02:13:32.083Z,98620.19
2019-04-11T02:14:12.133Z,98617.11
2019-04-11T02:14:36.562Z,98614.81
2019-04-11T02:15:08.305Z,98612.92
2019-04-11T02:15:40.732Z,98614.55
2019-04-11T02:16:12.633Z,98611.42
2019-04-11T02:16:43.943Z,98616.52
2019-04-11T02:17:15.158Z,98612.53
2019-04-11T02:17:46.733Z,98610.75
2019-04-11T02:18:18.058Z,98612.05
2019-04-11T02:18:49.854Z,98607.23
2019-04-11T02:19:21.194Z,98611.54
2019-04-11T02:19:52.434Z,98602.41
2019-04-11T02:20:23.703Z,98609.17
2019-04-11T02:20:55.734Z,98609.17
2019-04-11T02:21:28.114Z,98601.10
2019-04-11T02:22:00.102Z,98606.72
2019-04-11T02:22:32.642Z,98612.69
2019-04-11T02:23:04.616Z,98602.80
2019-04-11T02:23:35.904Z,98603.95
2019-04-11T02:24:07.843Z,98603.05
2019-04-11T02:24:39.695Z,98609.48
2019-04-11T02:25:10.989Z,98609.05
2019-04-11T02:25:42.871Z,98604.27
2019-04-11T02:26:14.673Z,98604.66
2019-04-11T02:26:47.231Z,98605.58
2019-04-11T02:27:19.067Z,98601.34
2019-04-11T02:27:50.591Z,98607.35
2019-04-11T02:28:22.499Z,98602.12
2019-04-11T02:28:55.102Z,98606.44
2019-04-11T02:29:27.430Z,98607.78
2019-04-11T02:29:58.988Z,98608.26
2019-04-11T02:30:30.825Z,98608.19
2019-04-11T02:31:04.553Z,98610.36
2019-04-11T02:31:36.901Z,98608.66
2019-04-11T02:32:09.909Z,98608.66
2019-04-11T02:32:42.869Z,98604.81
2019-04-11T02:33:16.340Z,98608.73
2019-04-11T02:33:48.820Z,98605.73
2019-04-11T02:34:21.337Z,98608.86
2019-04-11T02:34:56.158Z,98606.17
2019-04-11T02:35:26.799Z,98607.03
2019-04-11T02:35:58.179Z,98606.13
2019-04-11T02:36:30.132Z,98607.35
2019-04-11T02:37:02.548Z,98612.02
2019-04-11T02:37:34.432Z,98602.88
2019-04-11T02:38:07.568Z,98608.38
2019-04-11T02:38:40.783Z,98606.52
2019-04-11T02:39:16.911Z,98606.39
2019-04-11T02:39:44.863Z,98612.41
2019-04-11T02:40:17.681Z,98614.47
2019-04-11T02:40:50.043Z,98616.16
2019-04-11T02:41:21.604Z,98607.55
2019-04-11T02:41:52.846Z,98609.25
2019-04-11T02:42:27.486Z,98609.72
2019-04-11T02:42:59.405Z,98607.03
2019-04-11T02:43:31.984Z,98616.56
2019-04-11T02:44:03.706Z,98613.39
2019-04-11T02:44:56.498Z,98612.09
2019-04-11T02:45:24.463Z,98612.75
2019-04-11T02:45:54.039Z,98613.63
2019-04-11T02:46:24.570Z,98607.14
2019-04-11T02:47:00.290Z,98610.93
2019-04-11T02:47:25.350Z,98614.33
2019-04-11T02:47:56.325Z,98614.72
2019-04-11T02:48:28.786Z,98613.94
2019-04-11T02:49:01.512Z,98609.03
2019-04-11T02:49:33.785Z,98610.25
2019-04-11T02:50:08.020Z,98618.95
2019-04-11T02:50:41.047Z,98614.13
2019-04-11T02:51:12.367Z,98612.22
2019-04-11T02:51:45.006Z,98612.22
2019-04-11T02:52:17.537Z,98613.13
2019-04-11T02:52:49.717Z,98616.58
2019-04-11T02:53:23.617Z,98619.66
2019-04-11T02:53:56.620Z,98618.75
2019-04-11T02:54:28.335Z,98613.52
2019-04-11T02:55:00.800Z,98613.84
2019-04-11T02:55:33.456Z,98612.84
2019-04-11T02:56:06.342Z,98616.05
2019-04-11T02:56:37.885Z,98617.36
2019-04-11T02:57:09.970Z,98618.27
2019-04-11T02:57:42.703Z,98618.67
2019-04-11T02:58:14.546Z,98625.51
2019-04-11T02:58:46.389Z,98615.89
2019-04-11T02:59:19.632Z,98611.90
2019-04-11T02:59:51.231Z,98623.81
2019-04-11T03:00:24.282Z,98617.36
2019-04-11T03:00:58.946Z,98619.11
2019-04-11T03:01:28.684Z,98622.11
2019-04-11T03:02:00.493Z,98630.73
2019-04-11T03:02:32.785Z,98627.13
2019-04-11T03:03:05.697Z,98626.22
2019-04-11T03:03:37.447Z,98624.44
2019-04-11T03:04:10.573Z,98625.61
2019-04-11T03:04:43.723Z,98630.28
2019-04-11T03:05:16.261Z,98627.98
2019-04-11T03:05:47.754Z,98628.69
2019-04-11T03:06:19.465Z,98630.31
2019-04-11T03:06:51.951Z,98624.41
2019-04-11T03:07:24.737Z,98628.63
2019-04-11T03:07:56.526Z,98626.80
2019-04-11T03:08:31.820Z,98628.63
2019-04-11T03:09:02.547Z,98626.02
2019-04-11T03:09:35.217Z,98629.02
2019-04-11T03:10:07.366Z,98629.41
2019-04-11T03:10:40.921Z,98629.41
2019-04-11T03:11:14.190Z,98625.73
2019-04-11T03:11:47.159Z,98626.98
2019-04-11T03:12:19.261Z,98630.59
2019-04-11T03:12:52.717Z,98630.13
2019-04-11T03:13:25.346Z,98626.28
2019-04-11T03:13:58.171Z,98629.81
2019-04-11T03:14:47.284Z,98631.95
2019-04-11T03:15:21.105Z,98624.89
2019-04-11T03:15:49.610Z,98623.20
2019-04-11T03:16:25.008Z,98628.34
2019-04-11T03:16:52.032Z,98626.67
2019-04-11T03:17:20.585Z,98628.34
2019-04-11T03:17:49.399Z,98627.59
2019-04-11T03:18:42.481Z,98624.59
2019-04-11T03:19:09.991Z,98630.64
2019-04-11T03:19:42.662Z,98623.80
2019-04-11T03:20:13.274Z,98629.58
2019-04-11T03:20:39.228Z,98624.88
2019-04-11T03:21:11.315Z,98626.34
2019-04-11T03:21:41.175Z,98629.71
2019-04-11T03:22:10.879Z,98625.34
2019-04-11T03:22:42.565Z,98620.13
2019-04-11T03:23:16.541Z,98623.47
2019-04-11T03:23:46.876Z,98624.16
2019-04-11T03:24:18.290Z,98621.70
2019-04-11T03:24:51.071Z,98624.44
2019-04-11T03:25:22.705Z,98622.73
2019-04-11T03:25:54.412Z,98629.82
2019-04-11T03:26:27.051Z,98626.42
2019-04-11T03:27:02.214Z,98622.58
2019-04-11T03:27:32.603Z,98625.72
2019-04-11T03:28:05.152Z,98628.80
2019-04-11T03:28:38.923Z,98627.94
2019-04-11T03:29:11.183Z,98623.70
2019-04-11T03:29:43.196Z,98630.31
2019-04-11T03:30:20.213Z,98626.00
2019-04-11T03:31:17.248Z,98628.53
2019-04-11T03:32:04.991Z,98628.02
2019-04-11T03:35:06.227Z,98627.91
2019-04-11T03:35:20.890Z,98628.27
2019-04-11T03:36:41.895Z,98634.08
2019-04-11T03:37:19.342Z,98636.63
2019-04-11T03:37:44.595Z,98640.86
2019-04-11T03:38:19.540Z,98640.49
2019-04-11T03:38:46.586Z,98640.20
2019-04-11T03:39:21.310Z,98639.67
2019-04-11T03:39:56.869Z,98645.91
2019-04-11T03:40:27.018Z,98643.14
2019-04-11T03:40:57.869Z,98645.75
2019-04-11T03:41:26.944Z,98643.69
2019-04-11T03:42:07.404Z,98645.69
2019-04-11T03:42:35.220Z,98644.82
2019-04-11T03:43:06.083Z,98646.60
2019-04-11T03:43:36.526Z,98648.95
2019-04-11T03:44:07.859Z,98646.89
2019-04-11T03:44:37.856Z,98646.50
2019-04-11T03:45:25.874Z,98658.66
2019-04-11T03:46:01.981Z,98653.42
2019-04-11T03:46:25.038Z,98656.79
2019-04-11T03:47:01.457Z,98655.96
2019-04-11T03:47:29.295Z,98653.82
2019-04-11T03:48:05.823Z,98649.20
2019-04-11T03:48:36.801Z,98650.50
2019-04-11T03:49:03.443Z,98651.86
2019-04-11T03:49:35.429Z,98654.11
2019-04-11T03:50:07.639Z,98656.06
2019-04-11T03:50:34.865Z,98652.70
2019-04-11T03:51:06.553Z,98653.70
2019-04-11T03:51:39.286Z,98657.06
2019-04-11T03:52:12.192Z,98657.64
2019-04-11T03:52:45.036Z,98662.27
2019-04-11T03:53:17.326Z,98657.27
2019-04-11T03:53:49.393Z,98661.97
2019-04-11T03:54:23.098Z,98658.57
2019-04-11T03:54:56.063Z,98654.26
2019-04-11T03:55:28.382Z,98658.49
2019-04-11T03:56:01.637Z,98656.79
2019-04-11T03:56:34.912Z,98662.09
2019-04-11T03:57:07.866Z,98657.58
2019-04-11T03:57:39.608Z,98656.35
2019-04-11T03:58:10.894Z,98657.48
2019-04-11T03:58:43.588Z,98655.73
2019-04-11T03:59:16.764Z,98659.69
2019-04-11T03:59:48.088Z,98646.80
2019-04-11T04:00:19.891Z,98649.80
2019-04-11T04:00:53.428Z,98654.11
2019-04-11T04:01:26.768Z,98657.08
2019-04-11T04:01:59.847Z,98659.69
2019-04-11T04:02:32.630Z,98658.39
2019-04-11T04:03:05.948Z,98659.86
2019-04-11T04:03:38.698Z,98656.77
2019-04-11T04:04:11.300Z,98656.41
2019-04-11T04:04:43.620Z,98656.45
2019-04-11T04:05:17.450Z,98657.32
2019-04-11T04:05:48.727Z,98656.85
2019-04-11T04:06:21.065Z,98658.23
2019-04-11T04:06:52.846Z,98656.53
2019-04-11T04:07:24.277Z,98666.98
2019-04-11T04:07:57.601Z,98657.38
2019-04-11T04:08:29.767Z,98666.91
2019-04-11T04:09:02.727Z,98661.24
2019-04-11T04:09:35.268Z,98662.98
2019-04-11T04:10:09.187Z,98657.77
2019-04-11T04:10:39.631Z,98659.02
2019-04-11T04:11:12.334Z,98662.86
2019-04-11T04:11:44.983Z,98662.98
2019-04-11T04:12:16.802Z,98665.20
2019-04-11T04:12:48.157Z,98657.02
2019-04-11T04:13:21.327Z,98662.76
2019-04-11T04:13:54.041Z,98659.23
2019-04-11T04:14:26.385Z,98666.28
2019-04-11T04:14:59.172Z,98665.37
2019-04-11T04:15:44.302Z,98663.91
2019-04-11T04:16:17.648Z,98658.67
2019-04-11T04:16:43.196Z,98665.99
2019-04-11T04:17:11.486Z,98662.23
2019-04-11T04:17:43.384Z,98661.77
2019-04-11T04:18:16.418Z,98662.98
2019-04-11T04:18:47.951Z,98662.08
2019-04-11T04:19:20.513Z,98665.20
2019-04-11T04:19:51.893Z,98661.29
2019-04-11T04:20:24.559Z,98666.16
2019-04-11T04:20:57.478Z,98663.55
2019-04-11T04:21:28.957Z,98660.93
2019-04-11T04:22:00.242Z,98666.59
2019-04-11T04:22:31.653Z,98665.29
2019-04-11T04:23:05.159Z,98663.91
2019-04-11T04:23:38.076Z,98666.78
2019-04-11T04:24:10.570Z,98665.00
2019-04-11T04:24:44.314Z,98663.30
2019-04-11T04:25:16.507Z,98662.78
2019-04-11T04:25:49.254Z,98665.31
2019-04-11T04:26:20.768Z,98671.02
2019-04-11T04:26:52.612Z,98667.09
2019-04-11T04:27:27.471Z,98669.23
2019-04-11T04:27:58.907Z,98672.32
2019-04-11T04:28:31.803Z,98671.41
2019-04-11T04:29:04.415Z,98671.41
2019-04-11T04:29:37.697Z,98674.45
2019-04-11T04:30:10.695Z,98670.02
2019-04-11T04:30:43.265Z,98679.48
2019-04-11T04:31:16.185Z,98679.39
2019-04-11T04:31:48.962Z,98673.25
2019-04-11T04:32:20.766Z,98677.96
2019-04-11T04:32:54.451Z,98680.97
2019-04-11T04:33:26.613Z,98672.42
2019-04-11T04:33:59.634Z,98674.33
2019-04-11T04:34:31.600Z,98682.25
2019-04-11T04:35:04.992Z,98678.85
2019-04-11T04:35:36.735Z,98677.15
2019-04-11T04:36:10.777Z,98674.62
2019-04-11T04:36:42.347Z,98680.65
2019-04-11T04:37:14.082Z,98680.63
2019-04-11T04:37:47.492Z,98679.52
2019-04-11T04:38:19.050Z,98679.52
2019-04-11T04:38:50.295Z,98679.91
2019-04-11T04:39:22.941Z,98680.51
2019-04-11T04:40:13.188Z,98684.19
2019-04-11T04:40:47.955Z,98685.18
2019-04-11T04:41:16.707Z,98678.34
2019-04-11T04:41:39.283Z,98680.23
2019-04-11T04:42:13.437Z,98682.21
2019-04-11T04:42:45.838Z,98678.42
2019-04-11T04:43:12.151Z,98676.20
2019-04-11T04:43:44.354Z,98684.51
2019-04-11T04:44:16.931Z,98676.52
2019-04-11T04:44:49.323Z,98681.30
2019-04-11T04:45:23.683Z,98680.75
2019-04-11T04:46:13.692Z,98681.30
2019-04-11T04:46:42.306Z,98678.81
2019-04-11T04:47:13.616Z,98680.12
2019-04-11T04:47:42.236Z,98674.97
2019-04-11T04:48:11.181Z,98676.77
2019-04-11T04:48:42.526Z,98677.75
2019-04-11T04:49:13.174Z,98678.06
2019-04-11T04:49:45.983Z,98677.11
2019-04-11T04:50:18.202Z,98679.28
2019-04-11T04:50:52.329Z,98681.03
2019-04-11T04:51:24.271Z,98679.45
2019-04-11T04:51:56.093Z,98678.66
2019-04-11T04:52:29.548Z,98672.69
2019-04-11T04:53:02.603Z,98675.81
2019-04-11T04:53:35.020Z,98673.59
2019-04-11T04:54:07.974Z,98675.30
2019-04-11T04:54:41.014Z,98681.75
2019-04-11T04:55:12.915Z,98679.02
2019-04-11T04:55:45.673Z,98675.92
2019-04-11T04:56:22.814Z,98675.85
2019-04-11T04:56:50.449Z,98675.80
2019-04-11T04:57:24.481Z,98676.59
2019-04-11T04:57:57.578Z,98673.31
2019-04-11T04:58:29.318Z,98676.55
2019-04-11T04:59:02.588Z,98672.52
2019-04-11T04:59:34.013Z,98672.91
2019-04-11T05:00:07.066Z,98672.36
2019-04-11T05:00:39.689Z,98679.16
2019-04-11T05:01:12.702Z,98679.00
2019-04-11T05:01:45.738Z,98679.23
2019-04-11T05:02:17.747Z,98676.78
2019-04-11T05:02:50.327Z,98679.91
2019-04-11T05:03:22.348Z,98678.69
2019-04-11T05:03:54.229Z,98680.06
2019-04-11T05:04:27.354Z,98681.06
2019-04-11T05:04:59.344Z,98680.66
2019-04-11T05:05:33.998Z,98680.35
2019-04-11T05:06:04.676Z,98680.35
2019-04-11T05:06:36.509Z,98678.45
2019-04-11T05:07:09.383Z,98677.85
2019-04-11T05:07:43.946Z,98683.83
2019-04-11T05:08:14.521Z,98684.61
2019-04-11T05:08:47.207Z,98684.73
2019-04-11T05:09:18.523Z,98681.77
2019-04-11T05:09:50.347Z,98684.70
2019-04-11T05:10:22.197Z,98682.40
2019-04-11T05:10:53.634Z,98683.94
2019-04-11T05:11:26.237Z,98682.95
2019-04-11T05:11:57.656Z,98678.95
2019-04-11T05:12:30.261Z,98682.87
2019-04-11T05:13:01.551Z,98682.34
2019-04-11T05:13:34.288Z,98680.96
2019-04-11T05:14:07.152Z,98679.34
2019-04-11T05:14:39.285Z,98681.25
2019-04-11T05:15:12.082Z,98678.20
2019-04-11T05:15:45.029Z,98685.56
2019-04-11T05:16:18.014Z,98675.19
2019-04-11T05:16:50.456Z,98675.19
2019-04-11T05:17:23.085Z,98677.13
2019-04-11T05:17:54.607Z,98671.50
2019-04-11T05:18:25.976Z,98674.52
2019-04-11T05:18:58.277Z,98677.44
2019-04-11T05:19:30.236Z,98669.52
2019-04-11T05:20:01.476Z,98673.83
2019-04-11T05:20:32.685Z,98672.00
2019-04-11T05:21:05.217Z,98676.23
2019-04-11T05:21:37.183Z,98675.24
2019-04-11T05:22:08.569Z,98673.47
2019-04-11T05:22:39.818Z,98670.80
2019-04-11T05:23:11.928Z,98674.09
2019-04-11T05:23:43.283Z,98673.48
2019-04-11T05:24:14.613Z,98675.37
2019-04-11T05:24:45.812Z,98676.81
2019-04-11T05:25:18.198Z,98677.83
2019-04-11T05:25:49.551Z,98676.00
2019-04-11T05:26:21.557Z,98673.40
2019-04-11T05:26:52.817Z,98675.63
2019-04-11T05:27:25.104Z,98673.11
2019-04-11T05:27:56.374Z,98676.25
2019-04-11T05:28:27.741Z,98672.11
2019-04-11T05:28:58.981Z,98673.55
2019-04-11T05:29:30.242Z,98678.78
2019-04-11T05:30:01.516Z,98679.73
2019-04-11T05:30:34.487Z,98672.80
2019-04-11T05:31:06.095Z,98672.63
2019-04-11T05:31:38.637Z,98674.11
2019-04-11T05:32:09.957Z,98674.86
2019-04-11T05:32:41.721Z,98672.72
2019-04-11T05:33:13.622Z,98674.86
2019-04-11T05:33:45.652Z,98670.28
2019-04-11T05:34:18.177Z,98674.03
2019-04-11T05:34:49.530Z,98673.25
2019-04-11T05:35:20.795Z,98671.94
2019-04-11T05:35:52.179Z,98671.80
2019-04-11T05:36:23.386Z,98671.20
2019-04-11T05:36:55.454Z,98667.49
2019-04-11T05:37:27.002Z,98664.80
2019-04-11T05:37:58.261Z,98663.48
2019-04-11T05:38:29.468Z,98671.28
2019-04-11T05:39:03.677Z,98669.97
2019-04-11T05:39:35.865Z,98666.05
2019-04-11T05:40:07.380Z,98669.88
2019-04-11T05:40:39.759Z,98674.97
2019-04-11T05:41:13.510Z,98673.03
2019-04-11T05:41:46.699Z,98675.11
2019-04-11T05:42:19.452Z,98669.69
2019-04-11T05:42:53.469Z,98669.63
2019-04-11T05:43:28.123Z,98670.31
2019-04-11T05:44:00.901Z,98671.45
2019-04-11T05:44:28.845Z,98669.31
2019-04-11T05:45:00.091Z,98665.11
2019-04-11T05:45:31.820Z,98673.51
2019-04-11T05:46:10.182Z,98670.56
2019-04-11T05:46:49.280Z,98672.86
2019-04-11T05:47:09.124Z,98668.95
2019-04-11T05:47:40.330Z,98258.20
2019-04-11T05:48:11.622Z,98673.13
2019-04-11T05:48:43.039Z,98672.64
2019-04-11T05:49:14.271Z,98676.88
2019-04-11T05:49:46.553Z,98670.91
2019-04-11T05:50:18.015Z,98676.48
2019-04-11T05:50:51.647Z,98673.88
2019-04-11T05:51:23.801Z,98676.13
2019-04-11T05:51:57.985Z,98671.81
2019-04-11T05:52:31.942Z,98678.48
2019-04-11T05:53:03.494Z,98672.80
2019-04-11T05:53:36.431Z,98672.27
2019-04-11T05:54:08.838Z,98670.00
2019-04-11T05:54:41.841Z,98669.55
2019-04-11T05:55:13.906Z,98675.09
2019-04-11T05:55:47.162Z,98672.86
2019-04-11T05:56:19.182Z,98671.61
2019-04-11T05:56:55.125Z,98676.55
2019-04-11T05:57:27.846Z,98671.16
2019-04-11T05:57:56.864Z,98671.84
2019-04-11T05:58:28.272Z,98670.98
2019-04-11T05:58:59.837Z,98667.83
2019-04-11T05:59:31.193Z,98671.58
2019-04-11T06:00:03.442Z,98669.48
2019-04-11T06:00:34.788Z,98668.14
2019-04-11T06:01:06.075Z,98664.51
2019-04-11T06:01:38.320Z,98666.16
2019-04-11T06:02:10.959Z,98666.66
2019-04-11T06:02:43.452Z,98668.31
2019-04-11T06:03:15.513Z,98668.00
2019-04-11T06:03:49.190Z,98665.81
2019-04-11T06:04:23.304Z,98663.29
2019-04-11T06:04:55.926Z,98667.36
2019-04-11T06:05:29.580Z,98669.02
2019-04-11T06:06:00.442Z,98669.06
2019-04-11T06:06:36.140Z,98668.55
2019-04-11T06:07:07.931Z,98665.20
2019-04-11T06:07:42.080Z,98668.84
2019-04-11T06:08:12.259Z,98665.35
2019-04-11T06:08:44.155Z,98668.90
2019-04-11T06:09:16.313Z,98666.82
2019-04-11T06:09:48.208Z,98663.43
2019-04-11T06:10:19.909Z,98664.73
2019-04-11T06:10:52.291Z,98666.05
2019-04-11T06:11:24.257Z,98664.55
2019-04-11T06:11:57.533Z,98665.86
2019-04-11T06:12:29.572Z,98664.97
2019-04-11T06:13:00.892Z,98666.28
2019-04-11T06:13:32.271Z,98661.42
2019-04-11T06:14:05.687Z,98660.88
2019-04-11T06:14:37.533Z,98662.38
2019-04-11T06:15:08.790Z,98663.81
2019-04-11T06:15:42.805Z,98658.66
2019-04-11T06:16:13.000Z,98665.22
2019-04-11T06:16:49.451Z,98665.06
2019-04-11T06:17:18.388Z,98665.64
2019-04-11T06:17:50.298Z,98663.03
2019-04-11T06:18:26.950Z,98661.75
2019-04-11T06:18:54.540Z,98665.39
2019-04-11T06:19:25.775Z,98660.99
2019-04-11T06:19:57.637Z,98667.19
2019-04-11T06:20:29.232Z,98665.52
2019-04-11T06:21:00.562Z,98663.45